Station Historical Data
Daily Summary for May 18, 2017 Units:  English    Metric   Both
Next Day »
Daily Weekly Monthly Yearly Custom
  High: Low: Average:
Temperature: 69.9 °F 46.8 °F 58.7 °F
Dew Point: 49.3 °F 36.9 °F 42.6 °F
Humidity: 77% 38% 57%
Wind Speed: 15.0mph 0.0mph 1.4mph
Wind Gust: 19.0mph - -
Wind- - SW
Pressure: 30.05 in 29.94 in -
Precipitation: 0.00 in    
Historical Graphs
 
 
Tabular Data for May 18, 2017
Time Temperature Dew Point Pressure Wind Wind Speed Wind Gust Humidity Rainfall Rate (Hourly) solar Conditions
00:02 49.6 °F 41.0 °F 30.04 in Calm   1.0 mph 72% 0.00 in 0.00 W/m2
00:07 49.5 °F 40.9 °F 30.04 in East 1.0 mph 1.0 mph 72% 0.00 in 0.00 W/m2
00:12 49.5 °F 41.6 °F 30.04 in Calm   1.0 mph 74% 0.00 in 0.00 W/m2
00:17 49.5 °F 41.6 °F 30.04 in Calm   1.0 mph 74% 0.00 in 0.00 W/m2
00:22 49.4 °F 41.1 °F 30.03 in Calm   1.0 mph 73% 0.00 in 0.00 W/m2
00:27 49.4 °F 41.1 °F 30.03 in Calm   1.0 mph 73% 0.00 in 0.00 W/m2
00:32 49.5 °F 41.6 °F 30.03 in Calm   1.0 mph 74% 0.00 in 0.00 W/m2
00:37 49.5 °F 41.9 °F 30.03 in Calm   1.0 mph 75% 0.00 in 0.00 W/m2
00:42 49.5 °F 41.6 °F 30.03 in East 2.0 mph 9.0 mph 74% 0.00 in 0.00 W/m2
00:47 49.5 °F 41.6 °F 30.03 in ESE 4.0 mph 13.0 mph 74% 0.00 in 0.00 W/m2
00:52 49.5 °F 41.9 °F 30.03 in East 9.0 mph 13.0 mph 75% 0.00 in 0.00 W/m2
00:57 49.5 °F 41.9 °F 30.03 in East 11.0 mph 18.0 mph 75% 0.00 in 0.00 W/m2
01:02 49.4 °F 41.8 °F 30.03 in East 5.0 mph 12.0 mph 75% 0.00 in 0.00 W/m2
01:07 49.4 °F 41.5 °F 30.03 in East 6.0 mph 12.0 mph 74% 0.00 in 0.00 W/m2
01:12 49.4 °F 41.5 °F 30.03 in East 9.0 mph 14.0 mph 74% 0.00 in 0.00 W/m2
01:17 49.3 °F 41.4 °F 30.03 in East 1.0 mph 12.0 mph 74% 0.00 in 0.00 W/m2
01:22 49.3 °F 41.4 °F 30.02 in ESE 6.0 mph 14.0 mph 74% 0.00 in 0.00 W/m2
01:27 49.3 °F 41.4 °F 30.02 in ESE 9.0 mph 14.0 mph 74% 0.00 in 0.00 W/m2
01:32 49.3 °F 41.4 °F 30.02 in Calm   1.0 mph 74% 0.00 in 0.00 W/m2
01:37 49.3 °F 41.4 °F 30.02 in Calm   13.0 mph 74% 0.00 in 0.00 W/m2
01:42 49.3 °F 41.4 °F 30.02 in Calm   1.0 mph 74% 0.00 in 0.00 W/m2
01:47 49.3 °F 41.4 °F 30.02 in East 2.0 mph 12.0 mph 74% 0.00 in 0.00 W/m2
01:52 49.2 °F 40.9 °F 30.02 in Calm   1.0 mph 73% 0.00 in 0.00 W/m2
01:57 49.2 °F 40.9 °F 30.02 in Calm   1.0 mph 73% 0.00 in 0.00 W/m2
02:02 49.2 °F 40.9 °F 30.02 in Calm   1.0 mph 73% 0.00 in 0.00 W/m2
02:07 49.1 °F 40.8 °F 30.02 in Calm   1.0 mph 73% 0.00 in 0.00 W/m2
02:12 49.1 °F 40.5 °F 30.02 in East 4.0 mph 10.0 mph 72% 0.00 in 0.00 W/m2
02:17 49.0 °F 40.4 °F 30.02 in East 5.0 mph 7.0 mph 72% 0.00 in 0.00 W/m2
02:22 48.9 °F 40.3 °F 30.02 in Calm   1.0 mph 72% 0.00 in 0.00 W/m2
02:27 48.8 °F 40.5 °F 30.03 in Calm   1.0 mph 73% 0.00 in 0.00 W/m2
02:32 48.8 °F 40.5 °F 30.02 in Calm   1.0 mph 73% 0.00 in 0.00 W/m2
02:37 48.7 °F 40.5 °F 30.02 in Calm   1.0 mph 73% 0.00 in 0.00 W/m2
02:42 48.7 °F 40.5 °F 30.02 in Calm   1.0 mph 73% 0.00 in 0.00 W/m2
02:47 48.5 °F 39.9 °F 30.02 in Calm   1.0 mph 72% 0.00 in 0.00 W/m2
02:52 48.5 °F 39.9 °F 30.01 in ENE 1.0 mph 1.0 mph 72% 0.00 in 0.00 W/m2
02:57 48.4 °F 39.8 °F 30.02 in ENE 1.0 mph 1.0 mph 72% 0.00 in 0.00 W/m2
03:02 48.3 °F 39.3 °F 30.01 in Calm   1.0 mph 71% 0.00 in 0.00 W/m2
03:07 48.3 °F 39.7 °F 30.01 in Calm   1.0 mph 72% 0.00 in 0.00 W/m2
03:13 48.3 °F 39.0 °F 30.02 in Calm   1.0 mph 70% 0.00 in 0.00 W/m2
03:18 48.3 °F 39.3 °F 30.02 in Calm     71% 0.00 in 0.00 W/m2
03:23 48.3 °F 40.1 °F 30.02 in Calm     73% 0.00 in 0.00 W/m2
03:28 48.3 °F 39.0 °F 30.02 in Calm   1.0 mph 70% 0.00 in 0.00 W/m2
03:33 48.2 °F 38.5 °F 30.01 in Calm     69% 0.00 in 0.00 W/m2
03:38 48.1 °F 38.4 °F 30.01 in Calm   1.0 mph 69% 0.00 in 0.00 W/m2
03:43 48.0 °F 38.7 °F 30.01 in Calm   1.0 mph 70% 0.00 in 0.00 W/m2
03:48 47.9 °F 39.3 °F 30.01 in Calm   1.0 mph 72% 0.00 in 0.00 W/m2
03:53 47.8 °F 38.9 °F 30.01 in Calm   1.0 mph 71% 0.00 in 0.00 W/m2
03:58 47.7 °F 39.1 °F 30.00 in Calm   1.0 mph 72% 0.00 in 0.00 W/m2
04:03 47.5 °F 38.9 °F 30.01 in Calm   1.0 mph 72% 0.00 in 0.00 W/m2
04:08 47.4 °F 38.5 °F 30.01 in Calm   1.0 mph 71% 0.00 in 0.00 W/m2
04:13 47.3 °F 38.4 °F 30.01 in Calm   1.0 mph 71% 0.00 in 0.00 W/m2
04:18 47.2 °F 38.3 °F 30.00 in Calm     71% 0.00 in 0.00 W/m2
04:23 47.2 °F 38.3 °F 30.00 in Calm   1.0 mph 71% 0.00 in 0.00 W/m2
04:28 47.1 °F 38.2 °F 30.00 in Calm   1.0 mph 71% 0.00 in 0.00 W/m2
04:38 47.0 °F 38.1 °F 30.01 in Calm   1.0 mph 71% 0.00 in 0.00 W/m2
04:43 47.0 °F 38.1 °F 30.01 in Calm   1.0 mph 71% 0.00 in 0.00 W/m2
04:48 46.9 °F 38.4 °F 30.01 in Calm   1.0 mph 72% 0.00 in 0.00 W/m2
04:53 46.9 °F 38.4 °F 30.01 in Calm   1.0 mph 72% 0.00 in 0.00 W/m2
04:58 46.9 °F 38.4 °F 30.01 in Calm   1.0 mph 72% 0.00 in 0.00 W/m2
05:03 46.9 °F 38.0 °F 30.01 in Calm   1.0 mph 71% 0.00 in 0.00 W/m2
05:08 46.8 °F 37.9 °F 30.01 in Calm   1.0 mph 71% 0.00 in 0.00 W/m2
05:13 46.8 °F 37.9 °F 30.00 in Calm   1.0 mph 71% 0.00 in 0.00 W/m2
05:18 46.8 °F 37.2 °F 30.00 in ENE 1.0 mph 1.0 mph 69% 0.00 in 0.00 W/m2
05:23 46.8 °F 37.5 °F 30.01 in Calm   1.0 mph 70% 0.00 in 0.00 W/m2
05:28 46.9 °F 36.9 °F 30.00 in Calm     68% 0.00 in 0.00 W/m2
05:33 46.9 °F 36.9 °F 30.01 in Calm   1.0 mph 68% 0.00 in 0.00 W/m2
05:38 47.0 °F 37.0 °F 30.01 in Calm   1.0 mph 68% 0.00 in 0.00 W/m2
05:43 47.1 °F 37.1 °F 30.00 in Calm   1.0 mph 68% 0.00 in 0.00 W/m2
05:48 47.2 °F 37.6 °F 30.01 in Calm     69% 0.00 in 5.00 W/m2
05:53 47.2 °F 37.9 °F 30.01 in Calm   1.0 mph 70% 0.00 in 7.00 W/m2
05:58 47.2 °F 37.9 °F 30.01 in Calm   1.0 mph 70% 0.00 in 11.00 W/m2
06:03 47.3 °F 38.4 °F 30.01 in Calm   1.0 mph 71% 0.00 in 12.00 W/m2
06:08 47.3 °F 38.7 °F 30.01 in Calm   1.0 mph 72% 0.00 in 14.00 W/m2
06:13 47.3 °F 38.4 °F 30.01 in Calm   1.0 mph 71% 0.00 in 18.00 W/m2
06:18 47.3 °F 38.7 °F 30.01 in Calm   1.0 mph 72% 0.00 in 23.00 W/m2
06:23 47.2 °F 39.0 °F 30.02 in Calm   1.0 mph 73% 0.00 in 33.00 W/m2
06:28 47.2 °F 39.3 °F 30.02 in Calm     74% 0.00 in 47.00 W/m2
06:33 47.1 °F 39.6 °F 30.02 in Calm   1.0 mph 75% 0.00 in 60.00 W/m2
06:38 47.0 °F 38.8 °F 30.02 in Calm     73% 0.00 in 74.00 W/m2
06:43 47.0 °F 38.1 °F 30.02 in Calm   1.0 mph 71% 0.00 in 88.00 W/m2
06:48 46.9 °F 37.6 °F 30.02 in Calm   1.0 mph 70% 0.00 in 105.00 W/m2
06:53 46.9 °F 38.0 °F 30.02 in Calm   1.0 mph 71% 0.00 in 125.00 W/m2
06:58 46.9 °F 38.4 °F 30.02 in Calm   1.0 mph 72% 0.00 in 142.00 W/m2
07:08 46.9 °F 39.1 °F 30.02 in Calm   1.0 mph 74% 0.00 in 185.00 W/m2
07:13 46.9 °F 39.4 °F 30.02 in Calm   1.0 mph 75% 0.00 in 206.00 W/m2
07:18 47.0 °F 39.2 °F 30.02 in East 1.0 mph 1.0 mph 74% 0.00 in 223.00 W/m2
07:23 47.1 °F 39.6 °F 30.02 in Calm   1.0 mph 75% 0.00 in 246.00 W/m2
07:28 47.2 °F 39.7 °F 30.03 in Calm   1.0 mph 75% 0.00 in 269.00 W/m2
07:33 47.3 °F 40.1 °F 30.03 in East 1.0 mph 1.0 mph 76% 0.00 in 288.00 W/m2
07:34 47.3 °F 40.1 °F 30.03 in Calm   1.0 mph 76% 0.00 in 292.00 W/m2
07:40 47.5 °F 40.3 °F 30.03 in Calm   1.0 mph 76% 0.00 in 308.00 W/m2
07:45 47.6 °F 40.4 °F 30.03 in Calm   1.0 mph 76% 0.00 in 327.00 W/m2
07:50 47.9 °F 41.0 °F 30.03 in Calm   2.0 mph 77% 0.00 in 345.00 W/m2
07:55 48.1 °F 40.6 °F 30.04 in East 1.0 mph 10.0 mph 75% 0.00 in 360.00 W/m2
08:00 48.4 °F 40.5 °F 30.04 in East 1.0 mph 2.0 mph 74% 0.00 in 378.00 W/m2
08:05 48.8 °F 40.9 °F 30.04 in Calm   1.0 mph 74% 0.00 in 396.00 W/m2
08:10 49.2 °F 41.6 °F 30.04 in East 1.0 mph 2.0 mph 75% 0.00 in 410.00 W/m2
08:15 49.6 °F 41.7 °F 30.04 in Calm   3.0 mph 74% 0.00 in 427.00 W/m2
08:20 50.0 °F 41.7 °F 30.04 in Calm   1.0 mph 73% 0.00 in 445.00 W/m2
08:25 50.4 °F 41.7 °F 30.04 in Calm   1.0 mph 72% 0.00 in 462.00 W/m2
08:30 50.7 °F 41.3 °F 30.04 in East 1.0 mph 1.0 mph 70% 0.00 in 478.00 W/m2
08:35 51.0 °F 41.2 °F 30.05 in Calm     69% 0.00 in 494.00 W/m2
08:40 51.3 °F 42.2 °F 30.05 in Calm   1.0 mph 71% 0.00 in 512.00 W/m2
08:45 51.7 °F 43.3 °F 30.05 in East 1.0 mph 2.0 mph 73% 0.00 in 529.00 W/m2
08:50 52.0 °F 42.9 °F 30.05 in Calm   1.0 mph 71% 0.00 in 545.00 W/m2
08:55 52.5 °F 43.4 °F 30.05 in Calm   1.0 mph 71% 0.00 in 557.00 W/m2
09:00 53.2 °F 41.8 °F 30.05 in Calm     65% 0.00 in 571.00 W/m2
09:05 53.7 °F 41.8 °F 30.05 in Calm     64% 0.00 in 589.00 W/m2
09:10 54.3 °F 43.2 °F 30.05 in Calm     66% 0.00 in 605.00 W/m2
09:15 54.6 °F 43.1 °F 30.05 in Calm     65% 0.00 in 619.00 W/m2
09:20 55.0 °F 43.1 °F 30.04 in Calm   1.0 mph 64% 0.00 in 633.00 W/m2
09:25 55.5 °F 43.9 °F 30.05 in Calm   1.0 mph 65% 0.00 in 649.00 W/m2
09:30 56.0 °F 44.0 °F 30.04 in Calm   1.0 mph 64% 0.00 in 661.00 W/m2
09:35 56.4 °F 44.4 °F 30.05 in ENE 2.0 mph 3.0 mph 64% 0.00 in 671.00 W/m2
09:40 56.9 °F 43.6 °F 30.05 in NE 1.0 mph 2.0 mph 61% 0.00 in 687.00 W/m2
09:45 57.4 °F 41.4 °F 30.05 in Calm   3.0 mph 55% 0.00 in 701.00 W/m2
09:50 58.0 °F 41.0 °F 30.04 in NNE 1.0 mph 1.0 mph 53% 0.00 in 717.00 W/m2
09:55 58.4 °F 39.8 °F 30.04 in Calm   3.0 mph 50% 0.00 in 729.00 W/m2
10:00 58.7 °F 39.6 °F 30.04 in Calm   1.0 mph 49% 0.00 in 742.00 W/m2
10:05 59.0 °F 40.4 °F 30.04 in Calm   1.0 mph 50% 0.00 in 756.00 W/m2
10:10 59.4 °F 41.3 °F 30.04 in Calm   4.0 mph 51% 0.00 in 766.00 W/m2
10:15 59.7 °F 41.6 °F 30.04 in Calm   3.0 mph 51% 0.00 in 775.00 W/m2
10:20 60.0 °F 42.8 °F 30.04 in NNW 2.0 mph 6.0 mph 53% 0.00 in 791.00 W/m2
10:25 60.3 °F 40.0 °F 30.04 in NNW 1.0 mph 5.0 mph 47% 0.00 in 800.00 W/m2
10:30 60.5 °F 37.9 °F 30.03 in Calm   1.0 mph 43% 0.00 in 809.00 W/m2
10:35 60.8 °F 39.9 °F 30.04 in NNW 1.0 mph 3.0 mph 46% 0.00 in 821.00 W/m2
10:40 61.1 °F 40.2 °F 30.03 in Calm   1.0 mph 46% 0.00 in 831.00 W/m2
10:45 61.4 °F 39.9 °F 30.03 in Calm   2.0 mph 45% 0.00 in 840.00 W/m2
10:50 61.6 °F 40.6 °F 30.03 in Calm   3.0 mph 46% 0.00 in 849.00 W/m2
10:55 61.9 °F 39.8 °F 30.03 in Calm   4.0 mph 44% 0.00 in 860.00 W/m2
11:00 62.3 °F 42.4 °F 30.03 in Calm   3.0 mph 48% 0.00 in 867.00 W/m2
11:05 62.7 °F 38.0 °F 30.03 in Calm   6.0 mph 40% 0.00 in 879.00 W/m2
11:10 63.1 °F 39.7 °F 30.03 in Calm   3.0 mph 42% 0.00 in 884.00 W/m2
11:15 63.3 °F 38.6 °F 30.03 in WNW 1.0 mph 4.0 mph 40% 0.00 in 893.00 W/m2
11:20 63.6 °F 38.2 °F 30.03 in NW 1.0 mph 6.0 mph 39% 0.00 in 900.00 W/m2
11:25 63.9 °F 37.8 °F 30.03 in Calm   3.0 mph 38% 0.00 in 907.00 W/m2
11:30 64.1 °F 39.3 °F 30.03 in NW 4.0 mph 6.0 mph 40% 0.00 in 914.00 W/m2
11:35 64.5 °F 40.3 °F 30.03 in WNW 1.0 mph 9.0 mph 41% 0.00 in 921.00 W/m2
11:41 64.7 °F 38.5 °F 30.02 in WNW 6.0 mph 6.0 mph 38% 0.00 in 921.00 W/m2
11:46 65.0 °F 42.6 °F 30.02 in Calm   8.0 mph 44% 0.00 in 926.00 W/m2
11:51 65.3 °F 42.2 °F 30.02 in West 3.0 mph 4.0 mph 43% 0.00 in 933.00 W/m2
11:56 65.7 °F 44.4 °F 30.02 in Calm   9.0 mph 46% 0.00 in 939.00 W/m2
12:01 66.0 °F 42.9 °F 30.02 in Calm   8.0 mph 43% 0.00 in 944.00 W/m2
12:06 66.3 °F 45.5 °F 30.02 in Calm   8.0 mph 47% 0.00 in 947.00 W/m2
12:11 66.5 °F 44.5 °F 30.02 in NNW 1.0 mph 10.0 mph 45% 0.00 in 951.00 W/m2
12:16 66.5 °F 43.3 °F 30.02 in Calm   9.0 mph 43% 0.00 in 954.00 W/m2
12:21 66.5 °F 43.3 °F 30.02 in WNW 1.0 mph 2.0 mph 43% 0.00 in 958.00 W/m2
12:26 66.7 °F 43.5 °F 30.01 in Calm   2.0 mph 43% 0.00 in 954.00 W/m2
12:31 66.9 °F 43.7 °F 30.01 in NNW 1.0 mph 12.0 mph 43% 0.00 in 958.00 W/m2
12:36 67.0 °F 45.6 °F 30.01 in NW 4.0 mph 12.0 mph 46% 0.00 in 960.00 W/m2
12:41 67.3 °F 45.2 °F 30.01 in West 4.0 mph 9.0 mph 45% 0.00 in 962.00 W/m2
12:46 67.6 °F 45.5 °F 30.00 in WNW 1.0 mph 4.0 mph 45% 0.00 in 960.00 W/m2
12:51 67.7 °F 45.0 °F 30.00 in West 4.0 mph 9.0 mph 44% 0.00 in 960.00 W/m2
12:56 68.0 °F 46.5 °F 30.00 in WNW 4.0 mph 11.0 mph 46% 0.00 in 960.00 W/m2
13:01 68.1 °F 47.7 °F 30.00 in SW 1.0 mph 11.0 mph 48% 0.00 in 958.00 W/m2
13:06 68.5 °F 47.5 °F 30.00 in WSW 9.0 mph 9.0 mph 47% 0.00 in 956.00 W/m2
13:11 68.9 °F 48.4 °F 30.00 in Calm   14.0 mph 48% 0.00 in 951.00 W/m2
13:16 69.3 °F 45.9 °F 30.00 in West 8.0 mph 13.0 mph 43% 0.00 in 956.00 W/m2
13:21 69.5 °F 47.8 °F 30.00 in West 3.0 mph 12.0 mph 46% 0.00 in 949.00 W/m2
13:26 69.6 °F 46.1 °F 30.00 in Calm   9.0 mph 43% 0.00 in 949.00 W/m2
13:31 69.5 °F 47.8 °F 30.00 in Calm   9.0 mph 46% 0.00 in 946.00 W/m2
13:36 69.6 °F 47.3 °F 29.99 in Calm   9.0 mph 45% 0.00 in 942.00 W/m2
13:41 69.3 °F 45.9 °F 29.99 in Calm   14.0 mph 43% 0.00 in 939.00 W/m2
13:46 69.2 °F 46.4 °F 29.99 in WNW 1.0 mph 9.0 mph 44% 0.00 in 937.00 W/m2
13:51 69.2 °F 46.4 °F 29.99 in Calm   10.0 mph 44% 0.00 in 930.00 W/m2
13:56 68.9 °F 45.5 °F 29.99 in Calm   12.0 mph 43% 0.00 in 926.00 W/m2
14:01 68.9 °F 46.1 °F 29.99 in Calm   12.0 mph 44% 0.00 in 923.00 W/m2
14:06 68.9 °F 46.1 °F 29.99 in NW 1.0 mph 13.0 mph 44% 0.00 in 919.00 W/m2
14:11 69.2 °F 46.4 °F 29.99 in Calm   11.0 mph 44% 0.00 in 912.00 W/m2
14:16 69.2 °F 45.8 °F 29.99 in SSW 9.0 mph 9.0 mph 43% 0.00 in 905.00 W/m2
14:21 69.2 °F 46.4 °F 29.98 in West 5.0 mph 10.0 mph 44% 0.00 in 900.00 W/m2
14:26 69.3 °F 47.1 °F 29.98 in Calm   10.0 mph 45% 0.00 in 896.00 W/m2
14:31 69.5 °F 47.2 °F 29.98 in Calm   13.0 mph 45% 0.00 in 886.00 W/m2
14:36 69.6 °F 46.8 °F 29.98 in West 10.0 mph 14.0 mph 44% 0.00 in 881.00 W/m2
14:41 69.6 °F 45.5 °F 29.98 in Calm   14.0 mph 42% 0.00 in 872.00 W/m2
14:46 69.6 °F 46.8 °F 29.98 in NW 11.0 mph 11.0 mph 44% 0.00 in 863.00 W/m2
14:51 69.5 °F 45.4 °F 29.98 in NW 7.0 mph 15.0 mph 42% 0.00 in 853.00 W/m2
14:56 69.3 °F 45.9 °F 29.98 in WSW 9.0 mph 11.0 mph 43% 0.00 in 846.00 W/m2
15:01 69.4 °F 46.6 °F 29.98 in West 11.0 mph 16.0 mph 44% 0.00 in 837.00 W/m2
15:06 69.5 °F 46.7 °F 29.97 in Calm   11.0 mph 44% 0.00 in 828.00 W/m2
15:11 69.5 °F 46.7 °F 29.98 in West 4.0 mph 16.0 mph 44% 0.00 in 817.00 W/m2
15:16 69.5 °F 46.7 °F 29.97 in West 10.0 mph 13.0 mph 44% 0.00 in 807.00 W/m2
15:21 69.5 °F 46.0 °F 29.97 in WNW 7.0 mph 14.0 mph 43% 0.00 in 796.00 W/m2
15:26 69.5 °F 46.0 °F 29.97 in Calm   12.0 mph 43% 0.00 in 789.00 W/m2
15:31 69.5 °F 46.0 °F 29.97 in Calm   7.0 mph 43% 0.00 in 779.00 W/m2
15:36 69.6 °F 45.5 °F 29.97 in Calm   14.0 mph 42% 0.00 in 765.00 W/m2
15:41 69.6 °F 45.5 °F 29.97 in Calm   11.0 mph 42% 0.00 in 756.00 W/m2
15:46 69.5 °F 45.4 °F 29.97 in WNW 1.0 mph 13.0 mph 42% 0.00 in 745.00 W/m2
15:51 69.4 °F 46.0 °F 29.96 in NW 2.0 mph 2.0 mph 43% 0.00 in 731.00 W/m2
15:56 69.5 °F 46.0 °F 29.96 in WNW 6.0 mph 8.0 mph 43% 0.00 in 721.00 W/m2
16:01 69.7 °F 45.0 °F 29.96 in NW 10.0 mph 10.0 mph 41% 0.00 in 707.00 W/m2
16:06 69.7 °F 45.0 °F 29.96 in WNW 4.0 mph 8.0 mph 41% 0.00 in 694.00 W/m2
16:11 69.6 °F 45.5 °F 29.95 in NW 6.0 mph 10.0 mph 42% 0.00 in 682.00 W/m2
16:16 69.7 °F 46.2 °F 29.95 in Calm   2.0 mph 43% 0.00 in 668.00 W/m2
16:21 69.7 °F 45.0 °F 29.95 in Calm   7.0 mph 41% 0.00 in 647.00 W/m2
16:26 69.8 °F 44.4 °F 29.95 in Calm   1.0 mph 40% 0.00 in 642.00 W/m2
16:28 69.9 °F 47.0 °F 29.95 in WNW 9.0 mph 12.0 mph 44% 0.00 in 635.00 W/m2
16:33 69.8 °F 45.7 °F 29.95 in NW 6.0 mph 13.0 mph 42% 0.00 in 615.00 W/m2
16:38 69.8 °F 45.1 °F 29.95 in NNW 7.0 mph 10.0 mph 41% 0.00 in 606.00 W/m2
16:39 69.8 °F 45.1 °F 29.95 in NNW 13.0 mph 13.0 mph 41% 0.00 in 606.00 W/m2
16:44 69.7 °F 45.0 °F 29.95 in Calm   6.0 mph 41% 0.00 in 591.00 W/m2
16:49 69.8 °F 45.7 °F 29.95 in Calm   7.0 mph 42% 0.00 in 577.00 W/m2
16:54 69.8 °F 44.4 °F 29.95 in NNW 5.0 mph 10.0 mph 40% 0.00 in 555.00 W/m2
16:59 69.8 °F 45.1 °F 29.95 in NNW 5.0 mph 12.0 mph 41% 0.00 in 547.00 W/m2
17:04 69.7 °F 45.0 °F 29.95 in NW 1.0 mph 10.0 mph 41% 0.00 in 524.00 W/m2
17:14 69.9 °F 45.2 °F 29.94 in Calm   14.0 mph 41% 0.00 in 485.00 W/m2
17:19 69.9 °F 44.5 °F 29.94 in NW 7.0 mph 12.0 mph 40% 0.00 in 482.00 W/m2
17:24 69.9 °F 45.2 °F 29.94 in NW 7.0 mph 13.0 mph 41% 0.00 in 462.00 W/m2
17:29 69.9 °F 44.5 °F 29.94 in Calm   8.0 mph 40% 0.00 in 434.00 W/m2
17:34 69.9 °F 45.2 °F 29.94 in Calm   9.0 mph 41% 0.00 in 429.00 W/m2
17:39 69.8 °F 46.3 °F 29.94 in Calm   5.0 mph 43% 0.00 in 406.00 W/m2
17:44 69.7 °F 45.0 °F 29.94 in WNW 1.0 mph 14.0 mph 41% 0.00 in 385.00 W/m2
17:49 69.7 °F 44.3 °F 29.94 in NNW 3.0 mph 10.0 mph 40% 0.00 in 380.00 W/m2
17:54 69.5 °F 46.7 °F 29.94 in Calm   10.0 mph 44% 0.00 in 362.00 W/m2
17:59 69.4 °F 47.7 °F 29.94 in Calm   10.0 mph 46% 0.00 in 348.00 W/m2
18:04 69.3 °F 44.6 °F 29.94 in NNW 1.0 mph 13.0 mph 41% 0.00 in 334.00 W/m2
18:09 69.3 °F 45.2 °F 29.94 in NNW 4.0 mph 14.0 mph 42% 0.00 in 313.00 W/m2
18:14 69.3 °F 44.0 °F 29.94 in NNW 5.0 mph 12.0 mph 40% 0.00 in 301.00 W/m2
18:19 69.2 °F 43.9 °F 29.94 in NW 1.0 mph 12.0 mph 40% 0.00 in 262.00 W/m2
18:24 69.1 °F 43.8 °F 29.94 in Calm   10.0 mph 40% 0.00 in 264.00 W/m2
18:29 69.0 °F 44.3 °F 29.94 in Calm   10.0 mph 41% 0.00 in 258.00 W/m2
18:34 68.9 °F 44.2 °F 29.94 in NW 6.0 mph 7.0 mph 41% 0.00 in 237.00 W/m2
18:39 68.8 °F 44.2 °F 29.94 in Calm   12.0 mph 41% 0.00 in 218.00 W/m2
18:44 68.7 °F 44.1 °F 29.94 in Calm   5.0 mph 41% 0.00 in 209.00 W/m2
18:49 68.7 °F 45.3 °F 29.94 in Calm   1.0 mph 43% 0.00 in 190.00 W/m2
18:54 68.5 °F 45.8 °F 29.94 in Calm   8.0 mph 44% 0.00 in 167.00 W/m2
18:59 68.3 °F 45.6 °F 29.94 in NW 5.0 mph 5.0 mph 44% 0.00 in 149.00 W/m2
19:04 68.1 °F 44.2 °F 29.94 in Calm   8.0 mph 42% 0.00 in 128.00 W/m2
19:09 68.0 °F 45.9 °F 29.95 in Calm   5.0 mph 45% 0.00 in 113.00 W/m2
19:14 67.8 °F 48.5 °F 29.95 in Calm   4.0 mph 50% 0.00 in 95.00 W/m2
19:19 67.5 °F 49.3 °F 29.95 in Calm   5.0 mph 52% 0.00 in 76.00 W/m2
19:25 67.2 °F 49.0 °F 29.95 in Calm   6.0 mph 52% 0.00 in 63.00 W/m2
19:30 66.9 °F 47.7 °F 29.95 in Calm   6.0 mph 50% 0.00 in 53.00 W/m2
19:35 66.6 °F 47.4 °F 29.95 in NW 1.0 mph 3.0 mph 50% 0.00 in 40.00 W/m2
19:40 66.2 °F 47.0 °F 29.95 in Calm   3.0 mph 50% 0.00 in 30.00 W/m2
19:45 65.8 °F 46.7 °F 29.95 in Calm   2.0 mph 50% 0.00 in 23.00 W/m2
19:50 65.5 °F 46.9 °F 29.95 in Calm   2.0 mph 51% 0.00 in 19.00 W/m2
19:55 65.1 °F 46.5 °F 29.95 in NW 3.0 mph 5.0 mph 51% 0.00 in 16.00 W/m2
20:00 64.7 °F 45.1 °F 29.95 in Calm   4.0 mph 49% 0.00 in 14.00 W/m2
20:05 64.5 °F 45.5 °F 29.96 in Calm   2.0 mph 50% 0.00 in 11.00 W/m2
20:10 64.2 °F 45.2 °F 29.96 in Calm   2.0 mph 50% 0.00 in 9.00 W/m2
20:15 64.0 °F 45.5 °F 29.96 in Calm   3.0 mph 51% 0.00 in 5.00 W/m2
20:16 63.9 °F 44.4 °F 29.96 in NNW 1.0 mph 1.0 mph 49% 0.00 in 5.00 W/m2
20:21 63.7 °F 44.2 °F 29.96 in NNW 1.0 mph 1.0 mph 49% 0.00 in 0.00 W/m2
20:26 63.5 °F 44.0 °F 29.96 in Calm     49% 0.00 in 0.00 W/m2
20:31 63.2 °F 44.8 °F 29.96 in NNW 1.0 mph 1.0 mph 51% 0.00 in 0.00 W/m2
20:36 63.0 °F 44.1 °F 29.96 in NNW 1.0 mph 1.0 mph 50% 0.00 in 0.00 W/m2
20:41 62.8 °F 45.4 °F 29.96 in Calm   1.0 mph 53% 0.00 in 0.00 W/m2
20:46 62.5 °F 44.7 °F 29.96 in NNW 1.0 mph 1.0 mph 52% 0.00 in 0.00 W/m2
20:51 62.2 °F 43.9 °F 29.97 in Calm     51% 0.00 in 0.00 W/m2
20:56 61.8 °F 43.0 °F 29.97 in Calm     50% 0.00 in 0.00 W/m2
21:01 61.6 °F 42.3 °F 29.97 in Calm     49% 0.00 in 0.00 W/m2
21:06 61.3 °F 42.5 °F 29.97 in Calm     50% 0.00 in 0.00 W/m2
21:11 61.1 °F 42.3 °F 29.97 in Calm     50% 0.00 in 0.00 W/m2
21:16 61.0 °F 42.2 °F 29.97 in Calm     50% 0.00 in 0.00 W/m2
21:21 60.8 °F 42.6 °F 29.97 in Calm     51% 0.00 in 0.00 W/m2
21:26 60.7 °F 43.0 °F 29.98 in Calm     52% 0.00 in 0.00 W/m2
21:31 60.5 °F 42.8 °F 29.98 in Calm     52% 0.00 in 0.00 W/m2
21:36 60.4 °F 42.7 °F 29.98 in Calm     52% 0.00 in 0.00 W/m2
21:41 60.3 °F 43.6 °F 29.98 in Calm     54% 0.00 in 0.00 W/m2
21:46 60.1 °F 44.8 °F 29.99 in Calm     57% 0.00 in 0.00 W/m2
21:51 60.0 °F 43.3 °F 29.99 in Calm     54% 0.00 in 0.00 W/m2
21:56 59.9 °F 44.7 °F 29.99 in Calm     57% 0.00 in 0.00 W/m2
22:02 59.8 °F 44.5 °F 29.99 in Calm     57% 0.00 in 0.00 W/m2
22:07 59.6 °F 43.9 °F 29.99 in Calm   1.0 mph 56% 0.00 in 0.00 W/m2
22:12 59.5 °F 44.3 °F 29.99 in Calm   1.0 mph 57% 0.00 in 0.00 W/m2
22:17 59.4 °F 44.6 °F 29.99 in Calm   1.0 mph 58% 0.00 in 0.00 W/m2
22:22 59.3 °F 44.5 °F 29.99 in East 1.0 mph 2.0 mph 58% 0.00 in 0.00 W/m2
22:27 59.2 °F 44.9 °F 29.99 in ESE 1.0 mph 2.0 mph 59% 0.00 in 0.00 W/m2
22:32 59.1 °F 44.8 °F 29.99 in ESE 1.0 mph 4.0 mph 59% 0.00 in 0.00 W/m2
22:37 59.0 °F 44.7 °F 29.99 in Calm   2.0 mph 59% 0.00 in 0.00 W/m2
22:42 59.0 °F 44.7 °F 29.99 in Calm   4.0 mph 59% 0.00 in 0.00 W/m2
22:47 58.9 °F 44.2 °F 29.99 in Calm   6.0 mph 58% 0.00 in 0.00 W/m2
22:52 58.8 °F 44.1 °F 29.99 in ESE 1.0 mph 5.0 mph 58% 0.00 in 0.00 W/m2
22:57 58.7 °F 44.4 °F 29.99 in East 5.0 mph 7.0 mph 59% 0.00 in 0.00 W/m2
23:02 58.6 °F 43.9 °F 29.99 in Calm   4.0 mph 58% 0.00 in 0.00 W/m2
23:07 58.5 °F 43.8 °F 29.99 in East 4.0 mph 7.0 mph 58% 0.00 in 0.00 W/m2
23:12 58.4 °F 42.3 °F 29.99 in ESE 1.0 mph 5.0 mph 55% 0.00 in 0.00 W/m2
23:17 58.3 °F 41.8 °F 29.99 in Calm   15.0 mph 54% 0.00 in 0.00 W/m2
23:22 58.2 °F 40.7 °F 29.99 in ESE 15.0 mph 15.0 mph 52% 0.00 in 0.00 W/m2
23:27 58.1 °F 40.6 °F 29.99 in East 11.0 mph 12.0 mph 52% 0.00 in 0.00 W/m2
23:32 58.1 °F 40.1 °F 29.99 in ESE 2.0 mph 14.0 mph 51% 0.00 in 0.00 W/m2
23:37 58.1 °F 40.1 °F 29.99 in Calm   13.0 mph 51% 0.00 in 0.00 W/m2
23:42 58.1 °F 40.1 °F 30.00 in Calm   13.0 mph 51% 0.00 in 0.00 W/m2
23:47 58.0 °F 39.5 °F 30.00 in East 3.0 mph 19.0 mph 50% 0.00 in 0.00 W/m2
23:52 58.0 °F 39.5 °F 30.00 in Calm   13.0 mph 50% 0.00 in 0.00 W/m2
23:57 58.0 °F 39.0 °F 30.00 in ESE 7.0 mph 19.0 mph 49% 0.00 in 0.00 W/m2
Foresthill Weather
 WU-history PHP script courtesy of   Juneau County Weather.
powered by Cumulus v1.9.3 (1059)
Ambient Weather VWS v14.00
Top Contact Website Map Copyright © 2007 - 2018 Foresthillweather.com Never base important decisions on this or any weather information obtained from the Internet